Ottumwa, IA (52501)

1:32 AM CDT on September 05, 2015 (GMT -0500)
East | | Change Station
CLOSE
Current Station
Personal Weather Station
Location: Ottumwa, IA
Elevation: 833 ft
Nearby Weather Stations

Elev 833 ft 41.03 °N, 92.40 °W | Updated 18 seconds ago

Partly Cloudy
Partly Cloudy
76.0 °F
Feels Like 77 °F
N
0.4
Wind Variable Wind from SE
Gusts 1.1 mph

Today
High -- | Low -- °F
--% Chance of Precip.
Yesterday
High -- | Low -- °F
Precip. -- in
6:40 AM 7:36 PM
Waning Gibbous, 52% visible
Pressure 29.97 in
Visibility 10.0 miles
Clouds Clear
Heat Index 77 °F
Dew Point 68 °F
Humidity 76%
Rainfall 0.00 in
Snow Depth Not available.
UV 0 out of 12
Pollen 8.80 out of 12
Air Quality Not available.
Flu Activity Not available.
METAR KOTM 050553Z AUTO 17006KT 10SM CLR 23/21 A2999 RMK AO2 SLP149 T02330206 10289 20228 403280206 51009 TSNO
Pressure 29.97 in
Visibility 10.0 miles
Clouds Clear
Heat Index 77 °F
Dew Point 68 °F
Humidity 76%
Rainfall 0.00 in
Snow Depth Not available.
UV 0 out of 12
Pollen 8.80 out of 12
Air Quality Not available.
Flu Activity Not available.
METAR KOTM 050553Z AUTO 17006KT 10SM CLR 23/21 A2999 RMK AO2 SLP149 T02330206 10289 20228 403280206 51009 TSNO

10-Day Weather Forecast

×

Almanac

Astronomy

Sep. 05, 2015 Rise Set
Actual Time
Civil Twilight
Nautical Twilight
Astronomical Twilight
Moon
Length of Visible Light
Length of Day
Tomorrow will be .
, % of the Moon is Illuminated

Today's Extremes

State Highs State Lows

Community

WunderPhotos

Upload Photos

1,852,430 photos uploaded!

WunderBlogs® & News

Nearby

Air Quality

  Air Quality AQ Index Pollutant
Not available.

Snow Depth

Station Depth Elevation

Earthquake Activity

City Distance Mag. Time & Date
Minimum magnitude displayed is 2.5.

Coastal Water Temperatures

Place Temperature

Stations

Nearby Weather Stations

Station Location Temp. Windchill Dew Point Humidity Wind Precip. Elev Updated Type